sensor_id;sensor_type;location;lat;lon;timestamp;pressure;altitude;pressure_sealevel;temperature;humidity
9139;BME280;4604;48.616;9.548;2023-04-07T00:02:09;96923.31;;;7.06;84.96
9139;BME280;4604;48.616;9.548;2023-04-07T00:04:36;96918.78;;;7.08;85.38
9139;BME280;4604;48.616;9.548;2023-04-07T00:07:03;96916.66;;;7.02;85.68
9139;BME280;4604;48.616;9.548;2023-04-07T00:09:31;96907.34;;;7.10;85.07
9139;BME280;4604;48.616;9.548;2023-04-07T00:11:57;96913.09;;;7.15;85.70
9139;BME280;4604;48.616;9.548;2023-04-07T00:14:26;96907.94;;;7.13;85.16
9139;BME280;4604;48.616;9.548;2023-04-07T00:16:52;96903.28;;;7.05;85.31
9139;BME280;4604;48.616;9.548;2023-04-07T00:19:19;96897.69;;;7.10;85.02
9139;BME280;4604;48.616;9.548;2023-04-07T00:21:49;96893.28;;;7.11;84.72
9139;BME280;4604;48.616;9.548;2023-04-07T00:24:16;96895.03;;;6.99;85.33
9139;BME280;4604;48.616;9.548;2023-04-07T00:26:44;96899.34;;;7.00;85.38
9139;BME280;4604;48.616;9.548;2023-04-07T00:29:10;96899.09;;;6.92;85.89
9139;BME280;4604;48.616;9.548;2023-04-07T00:31:37;96893.13;;;6.90;85.91
9139;BME280;4604;48.616;9.548;2023-04-07T00:34:03;96885.38;;;6.88;86.16
9139;BME280;4604;48.616;9.548;2023-04-07T00:36:31;96882.50;;;6.80;86.12
9139;BME280;4604;48.616;9.548;2023-04-07T00:38:57;96881.91;;;6.88;85.80
9139;BME280;4604;48.616;9.548;2023-04-07T00:41:24;96879.16;;;6.89;84.64
9139;BME280;4604;48.616;9.548;2023-04-07T00:43:52;96875.47;;;6.92;84.79
9139;BME280;4604;48.616;9.548;2023-04-07T00:46:21;96876.09;;;6.95;84.56
9139;BME280;4604;48.616;9.548;2023-04-07T00:48:48;96880.00;;;6.90;85.37
9139;BME280;4604;48.616;9.548;2023-04-07T00:51:14;96875.81;;;6.87;85.70
9139;BME280;4604;48.616;9.548;2023-04-07T00:53:41;96874.53;;;6.93;85.50
9139;BME280;4604;48.616;9.548;2023-04-07T00:56:08;96864.75;;;6.95;84.95
9139;BME280;4604;48.616;9.548;2023-04-07T00:58:35;96865.59;;;6.95;84.96
9139;BME280;4604;48.616;9.548;2023-04-07T01:01:07;96864.75;;;6.95;85.37
9139;BME280;4604;48.616;9.548;2023-04-07T01:03:38;96859.13;;;6.99;85.49
9139;BME280;4604;48.616;9.548;2023-04-07T01:06:13;96857.13;;;6.92;85.27
9139;BME280;4604;48.616;9.548;2023-04-07T01:08:47;96858.06;;;7.02;84.57
9139;BME280;4604;48.616;9.548;2023-04-07T01:11:19;96855.69;;;7.10;84.04
9139;BME280;4604;48.616;9.548;2023-04-07T01:13:50;96850.22;;;6.91;84.39
9139;BME280;4604;48.616;9.548;2023-04-07T01:16:22;96840.19;;;6.96;83.78
9139;BME280;4604;48.616;9.548;2023-04-07T01:18:53;96845.66;;;7.04;83.89
9139;BME280;4604;48.616;9.548;2023-04-07T01:21:22;96834.94;;;6.96;83.78
9139;BME280;4604;48.616;9.548;2023-04-07T01:24:12;96833.63;;;7.01;84.14
9139;BME280;4604;48.616;9.548;2023-04-07T01:26:42;96830.75;;;7.04;84.21
9139;BME280;4604;48.616;9.548;2023-04-07T01:29:29;96836.59;;;6.97;84.73
9139;BME280;4604;48.616;9.548;2023-04-07T01:32:00;96827.91;;;6.96;84.89
9139;BME280;4604;48.616;9.548;2023-04-07T01:34:30;96829.81;;;6.94;85.16
9139;BME280;4604;48.616;9.548;2023-04-07T01:37:00;96828.00;;;6.95;85.35
9139;BME280;4604;48.616;9.548;2023-04-07T01:39:27;96818.13;;;6.98;85.16
9139;BME280;4604;48.616;9.548;2023-04-07T01:41:54;96829.09;;;6.92;86.18
9139;BME280;4604;48.616;9.548;2023-04-07T01:44:23;96814.91;;;6.95;85.81
9139;BME280;4604;48.616;9.548;2023-04-07T01:46:53;96811.91;;;6.99;84.81
9139;BME280;4604;48.616;9.548;2023-04-07T01:49:21;96804.78;;;6.90;85.22
9139;BME280;4604;48.616;9.548;2023-04-07T01:51:49;96800.94;;;6.94;84.94
9139;BME280;4604;48.616;9.548;2023-04-07T01:54:17;96797.84;;;6.89;85.43
9139;BME280;4604;48.616;9.548;2023-04-07T01:56:43;96793.91;;;6.95;84.93
9139;BME280;4604;48.616;9.548;2023-04-07T01:59:10;96792.84;;;6.86;84.87
9139;BME280;4604;48.616;9.548;2023-04-07T02:01:37;96781.75;;;6.82;85.27
9139;BME280;4604;48.616;9.548;2023-04-07T02:04:10;96797.84;;;6.89;85.00
9139;BME280;4604;48.616;9.548;2023-04-07T02:06:42;96793.78;;;6.85;85.01
9139;BME280;4604;48.616;9.548;2023-04-07T02:09:10;96801.56;;;6.86;85.66
9139;BME280;4604;48.616;9.548;2023-04-07T02:11:39;96798.94;;;6.98;84.44
9139;BME280;4604;48.616;9.548;2023-04-07T02:14:08;96787.59;;;6.86;85.13
9139;BME280;4604;48.616;9.548;2023-04-07T02:16:36;96787.59;;;6.86;85.11
9139;BME280;4604;48.616;9.548;2023-04-07T02:19:03;96782.84;;;6.91;85.13
9139;BME280;4604;48.616;9.548;2023-04-07T02:21:33;96779.03;;;6.95;84.21
9139;BME280;4604;48.616;9.548;2023-04-07T02:24:00;96783.78;;;6.90;84.98
9139;BME280;4604;48.616;9.548;2023-04-07T02:26:32;96773.28;;;6.79;85.51
9139;BME280;4604;48.616;9.548;2023-04-07T02:29:00;96776.03;;;6.77;85.45
9139;BME280;4604;48.616;9.548;2023-04-07T02:31:26;96774.34;;;6.88;85.89
9139;BME280;4604;48.616;9.548;2023-04-07T02:33:53;96776.38;;;6.84;86.12
9139;BME280;4604;48.616;9.548;2023-04-07T02:36:20;96771.41;;;6.81;85.82
9139;BME280;4604;48.616;9.548;2023-04-07T02:38:49;96772.13;;;6.83;85.16
9139;BME280;4604;48.616;9.548;2023-04-07T02:41:16;96770.91;;;6.87;85.19
9139;BME280;4604;48.616;9.548;2023-04-07T02:43:42;96772.59;;;6.88;85.19
9139;BME280;4604;48.616;9.548;2023-04-07T02:46:09;96765.03;;;6.95;84.92
9139;BME280;4604;48.616;9.548;2023-04-07T02:48:35;96761.34;;;6.97;83.92
9139;BME280;4604;48.616;9.548;2023-04-07T02:51:02;96759.94;;;6.93;84.11
9139;BME280;4604;48.616;9.548;2023-04-07T02:53:29;96760.50;;;7.08;84.02
9139;BME280;4604;48.616;9.548;2023-04-07T02:55:57;96761.94;;;7.12;82.77
9139;BME280;4604;48.616;9.548;2023-04-07T02:58:24;96744.38;;;7.24;81.60
9139;BME280;4604;48.616;9.548;2023-04-07T03:00:51;96749.50;;;7.14;81.54
9139;BME280;4604;48.616;9.548;2023-04-07T03:03:17;96753.00;;;7.03;82.20
9139;BME280;4604;48.616;9.548;2023-04-07T03:05:44;96750.03;;;7.08;82.51
9139;BME280;4604;48.616;9.548;2023-04-07T03:08:10;96752.13;;;7.14;81.16
9139;BME280;4604;48.616;9.548;2023-04-07T03:10:37;96747.59;;;7.16;81.43
9139;BME280;4604;48.616;9.548;2023-04-07T03:13:05;96740.00;;;7.13;80.97
9139;BME280;4604;48.616;9.548;2023-04-07T03:15:33;96742.09;;;7.19;80.39
9139;BME280;4604;48.616;9.548;2023-04-07T03:17:59;96738.81;;;7.06;81.52
9139;BME280;4604;48.616;9.548;2023-04-07T03:20:26;96740.13;;;7.00;80.89
9139;BME280;4604;48.616;9.548;2023-04-07T03:22:52;96728.91;;;7.10;81.03
9139;BME280;4604;48.616;9.548;2023-04-07T03:25:19;96724.25;;;7.13;80.40
9139;BME280;4604;48.616;9.548;2023-04-07T03:27:46;96729.50;;;7.02;81.26
9139;BME280;4604;48.616;9.548;2023-04-07T03:30:14;96731.31;;;7.01;81.05
9139;BME280;4604;48.616;9.548;2023-04-07T03:32:41;96723.44;;;7.01;80.65
9139;BME280;4604;48.616;9.548;2023-04-07T03:35:08;96722.84;;;6.98;81.98
9139;BME280;4604;48.616;9.548;2023-04-07T03:37:35;96716.28;;;7.03;81.81
9139;BME280;4604;48.616;9.548;2023-04-07T03:40:01;96710.06;;;7.04;81.08
9139;BME280;4604;48.616;9.548;2023-04-07T03:42:28;96710.19;;;7.03;81.38
9139;BME280;4604;48.616;9.548;2023-04-07T03:44:55;96714.72;;;7.01;81.95
9139;BME280;4604;48.616;9.548;2023-04-07T03:47:23;96714.22;;;7.07;80.61
9139;BME280;4604;48.616;9.548;2023-04-07T03:49:49;96721.53;;;7.03;81.13
9139;BME280;4604;48.616;9.548;2023-04-07T03:52:16;96722.50;;;7.02;80.48
9139;BME280;4604;48.616;9.548;2023-04-07T03:54:43;96721.88;;;7.10;80.17
9139;BME280;4604;48.616;9.548;2023-04-07T03:57:09;96716.94;;;7.17;79.72
9139;BME280;4604;48.616;9.548;2023-04-07T03:59:36;96720.66;;;7.14;79.78
9139;BME280;4604;48.616;9.548;2023-04-07T04:02:02;96710.88;;;7.16;79.75
9139;BME280;4604;48.616;9.548;2023-04-07T04:04:31;96718.16;;;7.13;80.10
9139;BME280;4604;48.616;9.548;2023-04-07T04:06:57;96723.63;;;7.21;79.90
9139;BME280;4604;48.616;9.548;2023-04-07T04:09:24;96728.31;;;7.17;79.64
9139;BME280;4604;48.616;9.548;2023-04-07T04:11:51;96716.75;;;7.08;80.60
9139;BME280;4604;48.616;9.548;2023-04-07T04:14:17;96720.69;;;7.03;80.82
9139;BME280;4604;48.616;9.548;2023-04-07T04:16:44;96717.56;;;7.09;83.79
9139;BME280;4604;48.616;9.548;2023-04-07T04:19:10;96713.53;;;7.05;85.59
9139;BME280;4604;48.616;9.548;2023-04-07T04:21:38;96712.69;;;7.04;87.45
9139;BME280;4604;48.616;9.548;2023-04-07T04:24:05;96710.06;;;7.04;88.34
9139;BME280;4604;48.616;9.548;2023-04-07T04:26:32;96713.75;;;7.02;89.42
9139;BME280;4604;48.616;9.548;2023-04-07T04:28:58;96711.13;;;7.02;91.00
9139;BME280;4604;48.616;9.548;2023-04-07T04:31:26;96707.22;;;6.96;91.46
9139;BME280;4604;48.616;9.548;2023-04-07T04:33:53;96701.09;;;7.07;93.62
9139;BME280;4604;48.616;9.548;2023-04-07T04:36:20;96706.13;;;6.99;94.47
9139;BME280;4604;48.616;9.548;2023-04-07T04:38:48;96704.38;;;6.88;95.34
9139;BME280;4604;48.616;9.548;2023-04-07T04:41:14;96706.66;;;6.93;95.60
9139;BME280;4604;48.616;9.548;2023-04-07T04:43:41;96703.31;;;6.91;95.05
9139;BME280;4604;48.616;9.548;2023-04-07T04:46:08;96711.28;;;6.89;95.95
9139;BME280;4604;48.616;9.548;2023-04-07T04:48:37;96701.50;;;6.91;96.10
9139;BME280;4604;48.616;9.548;2023-04-07T04:51:04;96708.19;;;6.95;96.31
9139;BME280;4604;48.616;9.548;2023-04-07T04:53:30;96711.41;;;6.88;97.57
9139;BME280;4604;48.616;9.548;2023-04-07T04:55:58;96708.78;;;6.88;96.97
9139;BME280;4604;48.616;9.548;2023-04-07T04:58:25;96704.84;;;6.82;97.93
9139;BME280;4604;48.616;9.548;2023-04-07T05:00:53;96700.44;;;6.82;97.67
9139;BME280;4604;48.616;9.548;2023-04-07T05:03:22;96700.44;;;6.82;98.70
9139;BME280;4604;48.616;9.548;2023-04-07T05:05:49;96697.00;;;6.82;98.86
9139;BME280;4604;48.616;9.548;2023-04-07T05:08:15;96701.28;;;6.83;99.86
9139;BME280;4604;48.616;9.548;2023-04-07T05:10:42;96692.81;;;6.79;99.77
9139;BME280;4604;48.616;9.548;2023-04-07T05:13:10;96697.94;;;6.81;99.99
9139;BME280;4604;48.616;9.548;2023-04-07T05:15:37;96703.19;;;6.81;100.00
9139;BME280;4604;48.616;9.548;2023-04-07T05:18:03;96701.66;;;6.78;100.00
9139;BME280;4604;48.616;9.548;2023-04-07T05:20:30;96705.00;;;6.80;100.00
9139;BME280;4604;48.616;9.548;2023-04-07T05:22:57;96703.91;;;6.83;100.00
9139;BME280;4604;48.616;9.548;2023-04-07T05:25:23;96708.44;;;6.81;100.00
9139;BME280;4604;48.616;9.548;2023-04-07T05:27:50;96704.59;;;6.85;100.00
9139;BME280;4604;48.616;9.548;2023-04-07T05:30:18;96702.13;;;6.83;100.00
9139;BME280;4604;48.616;9.548;2023-04-07T05:32:45;96701.28;;;6.83;100.00
9139;BME280;4604;48.616;9.548;2023-04-07T05:35:11;96694.13;;;6.85;100.00
9139;BME280;4604;48.616;9.548;2023-04-07T05:37:38;96703.78;;;6.84;100.00
9139;BME280;4604;48.616;9.548;2023-04-07T05:40:06;96701.16;;;6.84;100.00
9139;BME280;4604;48.616;9.548;2023-04-07T05:42:32;96694.00;;;6.86;100.00
9139;BME280;4604;48.616;9.548;2023-04-07T05:44:59;96698.06;;;6.91;100.00
9139;BME280;4604;48.616;9.548;2023-04-07T05:47:27;96697.91;;;6.92;100.00
9139;BME280;4604;48.616;9.548;2023-04-07T05:49:54;96707.84;;;6.89;100.00
9139;BME280;4604;48.616;9.548;2023-04-07T05:52:20;96710.22;;;6.92;100.00
9139;BME280;4604;48.616;9.548;2023-04-07T05:54:47;96712.47;;;6.96;100.00
9139;BME280;4604;48.616;9.548;2023-04-07T05:57:14;96701.16;;;6.96;100.00
9139;BME280;4604;48.616;9.548;2023-04-07T05:59:40;96706.13;;;6.99;100.00
9139;BME280;4604;48.616;9.548;2023-04-07T06:02:07;96711.13;;;7.02;100.00
9139;BME280;4604;48.616;9.548;2023-04-07T06:04:35;96710.78;;;7.06;100.00
9139;BME280;4604;48.616;9.548;2023-04-07T06:07:03;96705.31;;;7.10;100.00
9139;BME280;4604;48.616;9.548;2023-04-07T06:09:30;96707.31;;;7.17;100.00
9139;BME280;4604;48.616;9.548;2023-04-07T06:11:57;96714.91;;;7.20;100.00
9139;BME280;4604;48.616;9.548;2023-04-07T06:14:24;96710.25;;;7.24;100.00
9139;BME280;4604;48.616;9.548;2023-04-07T06:16:50;96718.47;;;7.31;100.00
9139;BME280;4604;48.616;9.548;2023-04-07T06:19:17;96712.13;;;7.33;100.00
9139;BME280;4604;48.616;9.548;2023-04-07T06:21:45;96716.19;;;7.37;100.00
9139;BME280;4604;48.616;9.548;2023-04-07T06:24:12;96716.75;;;7.41;100.00
9139;BME280;4604;48.616;9.548;2023-04-07T06:26:38;96711.84;;;7.47;100.00
9139;BME280;4604;48.616;9.548;2023-04-07T06:29:05;96720.78;;;7.56;98.64
9139;BME280;4604;48.616;9.548;2023-04-07T06:31:32;96717.91;;;7.59;98.65
9139;BME280;4604;48.616;9.548;2023-04-07T06:33:59;96715.84;;;7.63;98.00
9139;BME280;4604;48.616;9.548;2023-04-07T06:36:26;96711.03;;;7.68;97.65
9139;BME280;4604;48.616;9.548;2023-04-07T06:38:54;96714.53;;;7.68;97.15
9139;BME280;4604;48.616;9.548;2023-04-07T06:41:21;96710.91;;;7.69;97.26
9139;BME280;4604;48.616;9.548;2023-04-07T06:43:49;96719.13;;;7.76;97.41
9139;BME280;4604;48.616;9.548;2023-04-07T06:46:16;96714.97;;;7.74;97.36
9139;BME280;4604;48.616;9.548;2023-04-07T06:48:43;96721.13;;;7.84;97.98
9139;BME280;4604;48.616;9.548;2023-04-07T06:51:09;96719.06;;;7.87;100.00
9139;BME280;4604;48.616;9.548;2023-04-07T06:53:36;96723.75;;;7.84;100.00
9139;BME280;4604;48.616;9.548;2023-04-07T06:56:05;96711.78;;;7.91;100.00
9139;BME280;4604;48.616;9.548;2023-04-07T06:58:32;96711.88;;;7.89;100.00
9139;BME280;4604;48.616;9.548;2023-04-07T07:00:59;96714.72;;;7.98;100.00
9139;BME280;4604;48.616;9.548;2023-04-07T07:03:25;96711.91;;;8.10;100.00
9139;BME280;4604;48.616;9.548;2023-04-07T07:05:53;96693.66;;;8.19;100.00
9139;BME280;4604;48.616;9.548;2023-04-07T07:08:20;96703.84;;;8.33;99.82
9139;BME280;4604;48.616;9.548;2023-04-07T07:10:47;96697.56;;;8.45;98.89
9139;BME280;4604;48.616;9.548;2023-04-07T07:13:15;96701.94;;;8.56;97.74
9139;BME280;4604;48.616;9.548;2023-04-07T07:15:42;96694.75;;;8.68;96.10
9139;BME280;4604;48.616;9.548;2023-04-07T07:18:08;96702.94;;;8.74;95.16
9139;BME280;4604;48.616;9.548;2023-04-07T07:20:35;96695.91;;;8.85;94.27
9139;BME280;4604;48.616;9.548;2023-04-07T07:23:01;96705.75;;;8.92;93.48
9139;BME280;4604;48.616;9.548;2023-04-07T07:25:28;96696.13;;;9.03;92.18
9139;BME280;4604;48.616;9.548;2023-04-07T07:27:55;96696.13;;;9.12;91.33
9139;BME280;4604;48.616;9.548;2023-04-07T07:30:23;96699.63;;;9.23;90.10
9139;BME280;4604;48.616;9.548;2023-04-07T07:32:50;96702.69;;;9.37;88.00
9139;BME280;4604;48.616;9.548;2023-04-07T07:35:18;96698.38;;;9.56;87.30
9139;BME280;4604;48.616;9.548;2023-04-07T07:37:44;96701.16;;;9.74;86.96
9139;BME280;4604;48.616;9.548;2023-04-07T07:40:11;96706.72;;;9.80;86.39
9139;BME280;4604;48.616;9.548;2023-04-07T07:42:38;96699.47;;;9.92;83.35
9139;BME280;4604;48.616;9.548;2023-04-07T07:45:05;96706.53;;;10.01;81.40
9139;BME280;4604;48.616;9.548;2023-04-07T07:47:33;96706.22;;;10.14;78.07
9139;BME280;4604;48.616;9.548;2023-04-07T07:50:02;96709.69;;;10.24;76.82
9139;BME280;4604;48.616;9.548;2023-04-07T07:52:28;96707.97;;;10.53;75.85
9139;BME280;4604;48.616;9.548;2023-04-07T07:54:55;96709.66;;;10.81;72.29
9139;BME280;4604;48.616;9.548;2023-04-07T07:57:22;96708.41;;;10.85;71.19
9139;BME280;4604;48.616;9.548;2023-04-07T07:59:49;96718.28;;;10.83;70.02
9139;BME280;4604;48.616;9.548;2023-04-07T08:02:16;96724.09;;;10.87;70.24
9139;BME280;4604;48.616;9.548;2023-04-07T08:04:44;96724.13;;;10.77;68.72
9139;BME280;4604;48.616;9.548;2023-04-07T08:07:10;96725.09;;;10.48;67.82
9139;BME280;4604;48.616;9.548;2023-04-07T08:09:37;96718.44;;;10.35;66.51
9139;BME280;4604;48.616;9.548;2023-04-07T08:12:04;96721.34;;;10.41;67.45
9139;BME280;4604;48.616;9.548;2023-04-07T08:14:30;96718.97;;;10.38;67.69
9139;BME280;4604;48.616;9.548;2023-04-07T08:16:57;96716.28;;;10.58;68.05
9139;BME280;4604;48.616;9.548;2023-04-07T08:19:23;96715.09;;;10.80;68.00
9139;BME280;4604;48.616;9.548;2023-04-07T08:21:52;96722.66;;;11.02;67.81
9139;BME280;4604;48.616;9.548;2023-04-07T08:24:18;96711.16;;;11.11;66.35
9139;BME280;4604;48.616;9.548;2023-04-07T08:26:45;96720.28;;;11.27;64.89
9139;BME280;4604;48.616;9.548;2023-04-07T08:29:12;96723.59;;;11.01;64.42
9139;BME280;4604;48.616;9.548;2023-04-07T08:31:38;96714.50;;;10.86;65.33
9139;BME280;4604;48.616;9.548;2023-04-07T08:34:05;96717.38;;;11.02;66.04
9139;BME280;4604;48.616;9.548;2023-04-07T08:36:32;96724.44;;;11.29;64.06
9139;BME280;4604;48.616;9.548;2023-04-07T08:39:00;96724.88;;;11.25;63.98
9139;BME280;4604;48.616;9.548;2023-04-07T08:41:36;96727.00;;;11.39;64.75
9139;BME280;4604;48.616;9.548;2023-04-07T08:44:03;96723.00;;;11.35;63.89
9139;BME280;4604;48.616;9.548;2023-04-07T08:46:30;96722.47;;;11.49;63.70
9139;BME280;4604;48.616;9.548;2023-04-07T08:49:00;96729.97;;;11.72;62.81
9139;BME280;4604;48.616;9.548;2023-04-07T08:51:29;96723.16;;;11.69;62.45
9139;BME280;4604;48.616;9.548;2023-04-07T08:54:03;96727.25;;;11.64;64.27
9139;BME280;4604;48.616;9.548;2023-04-07T08:56:32;96728.94;;;11.83;62.69
9139;BME280;4604;48.616;9.548;2023-04-07T08:59:00;96730.97;;;11.89;63.53
9139;BME280;4604;48.616;9.548;2023-04-07T09:01:27;96732.53;;;12.17;61.14
9139;BME280;4604;48.616;9.548;2023-04-07T09:03:55;96728.75;;;12.20;61.75
9139;BME280;4604;48.616;9.548;2023-04-07T09:06:23;96728.28;;;12.25;60.48
9139;BME280;4604;48.616;9.548;2023-04-07T09:08:49;96736.31;;;12.41;60.57
9139;BME280;4604;48.616;9.548;2023-04-07T09:11:17;96732.25;;;12.29;60.30
9139;BME280;4604;48.616;9.548;2023-04-07T09:13:44;96732.53;;;12.17;61.75
9139;BME280;4604;48.616;9.548;2023-04-07T09:16:11;96729.56;;;12.20;62.35
9139;BME280;4604;48.616;9.548;2023-04-07T09:18:39;96731.13;;;12.31;61.51
9139;BME280;4604;48.616;9.548;2023-04-07T09:21:07;96726.09;;;12.72;60.27
9139;BME280;4604;48.616;9.548;2023-04-07T09:23:36;96736.91;;;12.53;59.37
9139;BME280;4604;48.616;9.548;2023-04-07T09:26:20;96724.22;;;12.64;59.05
9139;BME280;4604;48.616;9.548;2023-04-07T09:28:48;96721.78;;;13.05;57.77
9139;BME280;4604;48.616;9.548;2023-04-07T09:31:15;96730.78;;;13.21;57.38
9139;BME280;4604;48.616;9.548;2023-04-07T09:33:42;96730.22;;;13.09;56.01
9139;BME280;4604;48.616;9.548;2023-04-07T09:36:09;96729.44;;;13.17;56.73
9139;BME280;4604;48.616;9.548;2023-04-07T09:38:37;96729.19;;;13.02;58.81
9139;BME280;4604;48.616;9.548;2023-04-07T09:41:06;96723.66;;;12.79;60.27
9139;BME280;4604;48.616;9.548;2023-04-07T09:43:36;96732.41;;;12.79;59.70
9139;BME280;4604;48.616;9.548;2023-04-07T09:46:10;96731.50;;;12.62;60.32
9139;BME280;4604;48.616;9.548;2023-04-07T09:48:37;96727.13;;;12.79;61.00
9139;BME280;4604;48.616;9.548;2023-04-07T09:51:06;96734.25;;;12.53;61.86
9139;BME280;4604;48.616;9.548;2023-04-07T09:53:45;96733.22;;;12.72;61.33
9139;BME280;4604;48.616;9.548;2023-04-07T09:56:13;96733.56;;;12.51;63.30
9139;BME280;4604;48.616;9.548;2023-04-07T09:58:44;96733.09;;;12.55;62.95
9139;BME280;4604;48.616;9.548;2023-04-07T10:01:13;96734.25;;;12.53;64.75
9139;BME280;4604;48.616;9.548;2023-04-07T10:03:40;96739.09;;;12.57;63.04
9139;BME280;4604;48.616;9.548;2023-04-07T10:06:07;96738.25;;;12.57;63.16
9139;BME280;4604;48.616;9.548;2023-04-07T10:08:35;96734.94;;;12.55;63.67
9139;BME280;4604;48.616;9.548;2023-04-07T10:11:04;96734.22;;;12.45;62.82
9139;BME280;4604;48.616;9.548;2023-04-07T10:13:33;96727.19;;;12.35;62.38
9139;BME280;4604;48.616;9.548;2023-04-07T10:16:02;96736.84;;;12.18;62.46
9139;BME280;4604;48.616;9.548;2023-04-07T10:18:33;96743.22;;;12.08;63.37
9139;BME280;4604;48.616;9.548;2023-04-07T10:21:01;96734.13;;;11.92;64.67
9139;BME280;4604;48.616;9.548;2023-04-07T10:23:36;96731.72;;;12.17;63.69
9139;BME280;4604;48.616;9.548;2023-04-07T10:26:06;96735.03;;;12.01;64.34
9139;BME280;4604;48.616;9.548;2023-04-07T10:28:37;96733.59;;;12.25;64.10
9139;BME280;4604;48.616;9.548;2023-04-07T10:31:09;96733.53;;;12.42;61.79
9139;BME280;4604;48.616;9.548;2023-04-07T10:33:43;96730.19;;;12.40;61.61
9139;BME280;4604;48.616;9.548;2023-04-07T10:36:10;96732.75;;;12.50;61.97
9139;BME280;4604;48.616;9.548;2023-04-07T10:38:37;96736.28;;;12.59;61.19
9139;BME280;4604;48.616;9.548;2023-04-07T10:41:31;96730.88;;;12.69;59.81
9139;BME280;4604;48.616;9.548;2023-04-07T10:43:59;96733.28;;;12.54;60.79
9139;BME280;4604;48.616;9.548;2023-04-07T10:47:03;96729.16;;;12.59;59.73
9139;BME280;4604;48.616;9.548;2023-04-07T10:49:31;96723.19;;;12.83;58.19
9139;BME280;4604;48.616;9.548;2023-04-07T10:52:20;96732.03;;;12.40;58.90
9139;BME280;4604;48.616;9.548;2023-04-07T10:58:16;96731.72;;;12.69;58.75
9139;BME280;4604;48.616;9.548;2023-04-07T11:03:56;96733.91;;;12.82;59.39
9139;BME280;4604;48.616;9.548;2023-04-07T11:06:23;96736.22;;;12.77;58.71
9139;BME280;4604;48.616;9.548;2023-04-07T11:08:51;96731.59;;;12.53;58.50
9139;BME280;4604;48.616;9.548;2023-04-07T11:11:33;96735.88;;;12.80;59.96
9139;BME280;4604;48.616;9.548;2023-04-07T11:14:00;96725.78;;;12.75;60.10
9139;BME280;4604;48.616;9.548;2023-04-07T11:16:37;96732.59;;;12.78;60.63
9139;BME280;4604;48.616;9.548;2023-04-07T11:19:06;96728.31;;;12.85;60.52
9139;BME280;4604;48.616;9.548;2023-04-07T11:21:32;96736.31;;;12.93;60.05
9139;BME280;4604;48.616;9.548;2023-04-07T11:24:00;96723.44;;;13.06;59.30
9139;BME280;4604;48.616;9.548;2023-04-07T11:26:27;96727.94;;;13.14;59.33
9139;BME280;4604;48.616;9.548;2023-04-07T11:28:55;96732.25;;;13.23;59.13
9139;BME280;4604;48.616;9.548;2023-04-07T11:31:24;96722.91;;;13.37;58.64
9139;BME280;4604;48.616;9.548;2023-04-07T11:33:52;96732.41;;;13.14;59.04
9139;BME280;4604;48.616;9.548;2023-04-07T11:36:27;96733.59;;;13.19;57.99
9139;BME280;4604;48.616;9.548;2023-04-07T11:38:54;96730.06;;;13.11;59.20
9139;BME280;4604;48.616;9.548;2023-04-07T11:41:22;96730.94;;;13.19;57.96
9139;BME280;4604;48.616;9.548;2023-04-07T11:44:02;96728.34;;;12.93;60.04
9139;BME280;4604;48.616;9.548;2023-04-07T11:46:29;96733.47;;;12.95;60.41
9139;BME280;4604;48.616;9.548;2023-04-07T11:49:07;96732.41;;;13.14;59.87
9139;BME280;4604;48.616;9.548;2023-04-07T11:51:35;96732.38;;;13.05;60.88
9139;BME280;4604;48.616;9.548;2023-04-07T11:54:02;96729.84;;;13.30;59.30
9139;BME280;4604;48.616;9.548;2023-04-07T11:56:29;96732.59;;;13.20;60.10
9139;BME280;4604;48.616;9.548;2023-04-07T11:58:56;96730.09;;;13.19;59.73
9139;BME280;4604;48.616;9.548;2023-04-07T12:01:37;96734.88;;;13.07;60.05
9139;BME280;4604;48.616;9.548;2023-04-07T12:04:04;96732.56;;;13.12;59.67
9139;BME280;4604;48.616;9.548;2023-04-07T12:06:32;96740.31;;;12.97;60.44
9139;BME280;4604;48.616;9.548;2023-04-07T12:09:01;96738.91;;;12.85;61.05
9139;BME280;4604;48.616;9.548;2023-04-07T12:11:28;96738.91;;;12.85;61.95
9139;BME280;4604;48.616;9.548;2023-04-07T12:13:55;96741.16;;;12.72;60.54
9139;BME280;4604;48.616;9.548;2023-04-07T12:16:22;96729.88;;;12.70;60.54
9139;BME280;4604;48.616;9.548;2023-04-07T12:18:49;96739.75;;;12.85;61.46
9139;BME280;4604;48.616;9.548;2023-04-07T12:21:16;96734.28;;;12.87;60.56
9139;BME280;4604;48.616;9.548;2023-04-07T12:23:43;96739.75;;;12.85;61.46
9139;BME280;4604;48.616;9.548;2023-04-07T12:26:13;96731.31;;;12.90;60.34
9139;BME280;4604;48.616;9.548;2023-04-07T12:28:39;96742.81;;;13.07;59.58
9139;BME280;4604;48.616;9.548;2023-04-07T12:31:06;96744.81;;;13.13;58.97
9139;BME280;4604;48.616;9.548;2023-04-07T12:33:32;96754.03;;;13.01;60.44
9139;BME280;4604;48.616;9.548;2023-04-07T12:35:59;96749.69;;;12.92;60.24
9139;BME280;4604;48.616;9.548;2023-04-07T12:38:26;96751.03;;;12.88;61.03
9139;BME280;4604;48.616;9.548;2023-04-07T12:40:53;96751.97;;;12.87;59.15
9139;BME280;4604;48.616;9.548;2023-04-07T12:43:21;96751.13;;;12.78;59.16
9139;BME280;4604;48.616;9.548;2023-04-07T12:45:47;96752.38;;;12.66;59.50
9139;BME280;4604;48.616;9.548;2023-04-07T12:48:14;96757.28;;;12.60;59.65
9139;BME280;4604;48.616;9.548;2023-04-07T12:50:42;96745.56;;;12.63;60.08
9139;BME280;4604;48.616;9.548;2023-04-07T12:53:09;96745.72;;;12.61;60.97
9139;BME280;4604;48.616;9.548;2023-04-07T12:55:36;96745.97;;;12.76;59.05
9139;BME280;4604;48.616;9.548;2023-04-07T12:58:03;96749.56;;;12.67;59.66
9139;BME280;4604;48.616;9.548;2023-04-07T13:00:31;96749.75;;;12.66;59.15
9139;BME280;4604;48.616;9.548;2023-04-07T13:02:58;96746.44;;;12.72;59.49
9139;BME280;4604;48.616;9.548;2023-04-07T13:05:24;96751.84;;;12.88;58.48
9139;BME280;4604;48.616;9.548;2023-04-07T13:07:51;96745.50;;;12.81;58.84
9139;BME280;4604;48.616;9.548;2023-04-07T13:10:18;96753.28;;;12.82;58.24
9139;BME280;4604;48.616;9.548;2023-04-07T13:12:45;96752.75;;;12.71;58.53
9139;BME280;4604;48.616;9.548;2023-04-07T13:15:12;96745.03;;;12.85;58.34
9139;BME280;4604;48.616;9.548;2023-04-07T13:17:40;96744.22;;;12.85;57.99
9139;BME280;4604;48.616;9.548;2023-04-07T13:20:07;96748.28;;;12.71;58.60
9139;BME280;4604;48.616;9.548;2023-04-07T13:22:34;96740.66;;;12.68;58.00
9139;BME280;4604;48.616;9.548;2023-04-07T13:25:00;96747.44;;;12.71;58.04
9139;BME280;4604;48.616;9.548;2023-04-07T13:27:27;96752.31;;;12.57;58.47
9139;BME280;4604;48.616;9.548;2023-04-07T13:29:53;96753.41;;;12.47;57.86
9139;BME280;4604;48.616;9.548;2023-04-07T13:32:20;96760.47;;;12.64;58.58
9139;BME280;4604;48.616;9.548;2023-04-07T13:34:49;96758.59;;;12.30;59.64
9139;BME280;4604;48.616;9.548;2023-04-07T13:37:17;96759.47;;;11.95;61.22
9139;BME280;4604;48.616;9.548;2023-04-07T13:39:44;96760.63;;;11.47;64.11